sensor_id;sensor_type;location;lat;lon;timestamp;P1;durP1;ratioP1;P2;durP2;ratioP2
3843;SDS011;1937;51.444;6.484;2023-09-30T00:01:11;20.90;;;8.00;;
3843;SDS011;1937;51.444;6.484;2023-09-30T00:03:39;17.40;;;7.10;;
3843;SDS011;1937;51.444;6.484;2023-09-30T00:06:06;19.20;;;7.70;;
3843;SDS011;1937;51.444;6.484;2023-09-30T00:08:32;14.60;;;6.63;;
3843;SDS011;1937;51.444;6.484;2023-09-30T00:10:59;11.40;;;6.30;;
3843;SDS011;1937;51.444;6.484;2023-09-30T00:13:27;9.40;;;5.07;;
3843;SDS011;1937;51.444;6.484;2023-09-30T00:15:53;7.77;;;4.47;;
3843;SDS011;1937;51.444;6.484;2023-09-30T00:18:20;8.27;;;3.97;;
3843;SDS011;1937;51.444;6.484;2023-09-30T00:20:46;14.13;;;4.83;;
3843;SDS011;1937;51.444;6.484;2023-09-30T00:23:13;14.40;;;4.80;;
3843;SDS011;1937;51.444;6.484;2023-09-30T00:25:39;8.20;;;4.00;;
3843;SDS011;1937;51.444;6.484;2023-09-30T00:28:07;9.33;;;4.33;;
3843;SDS011;1937;51.444;6.484;2023-09-30T00:30:35;11.20;;;4.60;;
3843;SDS011;1937;51.444;6.484;2023-09-30T00:33:01;7.33;;;4.60;;
3843;SDS011;1937;51.444;6.484;2023-09-30T00:35:28;13.43;;;6.30;;
3843;SDS011;1937;51.444;6.484;2023-09-30T00:37:55;10.37;;;5.40;;
3843;SDS011;1937;51.444;6.484;2023-09-30T00:40:21;8.37;;;4.93;;
3843;SDS011;1937;51.444;6.484;2023-09-30T00:42:48;10.23;;;4.20;;
3843;SDS011;1937;51.444;6.484;2023-09-30T00:45:14;13.63;;;6.13;;
3843;SDS011;1937;51.444;6.484;2023-09-30T00:47:42;22.53;;;6.73;;
3843;SDS011;1937;51.444;6.484;2023-09-30T00:50:09;15.07;;;6.20;;
3843;SDS011;1937;51.444;6.484;2023-09-30T00:52:38;13.10;;;6.17;;
3843;SDS011;1937;51.444;6.484;2023-09-30T00:55:05;10.30;;;5.37;;
3843;SDS011;1937;51.444;6.484;2023-09-30T00:57:32;9.97;;;6.10;;
3843;SDS011;1937;51.444;6.484;2023-09-30T01:00:00;17.40;;;6.30;;
3843;SDS011;1937;51.444;6.484;2023-09-30T01:02:28;17.10;;;6.77;;
3843;SDS011;1937;51.444;6.484;2023-09-30T01:04:56;16.90;;;6.27;;
3843;SDS011;1937;51.444;6.484;2023-09-30T01:07:23;12.50;;;6.00;;
3843;SDS011;1937;51.444;6.484;2023-09-30T01:09:50;15.27;;;5.80;;
3843;SDS011;1937;51.444;6.484;2023-09-30T01:12:16;24.53;;;6.40;;
3843;SDS011;1937;51.444;6.484;2023-09-30T01:14:43;12.17;;;6.33;;
3843;SDS011;1937;51.444;6.484;2023-09-30T01:17:09;13.00;;;5.97;;
3843;SDS011;1937;51.444;6.484;2023-09-30T01:19:38;20.27;;;6.97;;
3843;SDS011;1937;51.444;6.484;2023-09-30T01:22:06;14.47;;;6.50;;
3843;SDS011;1937;51.444;6.484;2023-09-30T01:24:38;18.43;;;6.87;;
3843;SDS011;1937;51.444;6.484;2023-09-30T01:27:05;18.93;;;7.37;;
3843;SDS011;1937;51.444;6.484;2023-09-30T01:29:31;14.77;;;5.80;;
3843;SDS011;1937;51.444;6.484;2023-09-30T01:31:58;11.97;;;6.27;;
3843;SDS011;1937;51.444;6.484;2023-09-30T01:34:25;13.27;;;5.93;;
3843;SDS011;1937;51.444;6.484;2023-09-30T01:36:52;14.70;;;6.60;;
3843;SDS011;1937;51.444;6.484;2023-09-30T01:39:20;11.33;;;5.03;;
3843;SDS011;1937;51.444;6.484;2023-09-30T01:41:47;10.17;;;5.57;;
3843;SDS011;1937;51.444;6.484;2023-09-30T01:44:14;21.63;;;6.87;;
3843;SDS011;1937;51.444;6.484;2023-09-30T01:46:40;11.20;;;5.17;;
3843;SDS011;1937;51.444;6.484;2023-09-30T01:49:07;14.90;;;6.10;;
3843;SDS011;1937;51.444;6.484;2023-09-30T01:51:33;10.03;;;5.90;;
3843;SDS011;1937;51.444;6.484;2023-09-30T01:54:00;18.40;;;6.40;;
3843;SDS011;1937;51.444;6.484;2023-09-30T01:56:28;14.53;;;6.40;;
3843;SDS011;1937;51.444;6.484;2023-09-30T01:58:56;15.43;;;6.00;;
3843;SDS011;1937;51.444;6.484;2023-09-30T02:01:23;13.33;;;5.67;;
3843;SDS011;1937;51.444;6.484;2023-09-30T02:03:50;18.07;;;5.83;;
3843;SDS011;1937;51.444;6.484;2023-09-30T02:06:16;14.43;;;5.63;;
3843;SDS011;1937;51.444;6.484;2023-09-30T02:08:43;10.60;;;5.90;;
3843;SDS011;1937;51.444;6.484;2023-09-30T02:11:10;9.50;;;5.60;;
3843;SDS011;1937;51.444;6.484;2023-09-30T02:13:40;12.80;;;6.33;;
3843;SDS011;1937;51.444;6.484;2023-09-30T02:16:11;11.07;;;6.07;;
3843;SDS011;1937;51.444;6.484;2023-09-30T02:18:38;17.70;;;6.00;;
3843;SDS011;1937;51.444;6.484;2023-09-30T02:21:06;13.37;;;5.97;;
3843;SDS011;1937;51.444;6.484;2023-09-30T02:23:32;18.30;;;6.80;;
3843;SDS011;1937;51.444;6.484;2023-09-30T02:25:59;11.83;;;6.03;;
3843;SDS011;1937;51.444;6.484;2023-09-30T02:28:25;15.37;;;6.13;;
3843;SDS011;1937;51.444;6.484;2023-09-30T02:30:53;15.00;;;7.30;;
3843;SDS011;1937;51.444;6.484;2023-09-30T02:33:20;15.80;;;7.20;;
3843;SDS011;1937;51.444;6.484;2023-09-30T02:35:46;12.53;;;5.80;;
3843;SDS011;1937;51.444;6.484;2023-09-30T02:38:15;14.47;;;6.77;;
3843;SDS011;1937;51.444;6.484;2023-09-30T02:40:42;13.73;;;5.93;;
3843;SDS011;1937;51.444;6.484;2023-09-30T02:43:11;9.53;;;5.80;;
3843;SDS011;1937;51.444;6.484;2023-09-30T02:45:38;15.97;;;5.40;;
3843;SDS011;1937;51.444;6.484;2023-09-30T02:48:06;11.33;;;5.30;;
3843;SDS011;1937;51.444;6.484;2023-09-30T02:50:33;9.50;;;5.13;;
3843;SDS011;1937;51.444;6.484;2023-09-30T02:53:00;11.57;;;5.27;;
3843;SDS011;1937;51.444;6.484;2023-09-30T02:55:27;12.43;;;6.10;;
3843;SDS011;1937;51.444;6.484;2023-09-30T02:57:53;10.70;;;6.13;;
3843;SDS011;1937;51.444;6.484;2023-09-30T03:00:21;14.47;;;7.97;;
3843;SDS011;1937;51.444;6.484;2023-09-30T03:02:49;14.77;;;7.03;;
3843;SDS011;1937;51.444;6.484;2023-09-30T03:05:18;16.00;;;7.20;;
3843;SDS011;1937;51.444;6.484;2023-09-30T03:07:47;17.57;;;6.63;;
3843;SDS011;1937;51.444;6.484;2023-09-30T03:10:15;14.33;;;8.17;;
3843;SDS011;1937;51.444;6.484;2023-09-30T03:12:45;14.37;;;7.63;;
3843;SDS011;1937;51.444;6.484;2023-09-30T03:15:12;14.70;;;7.30;;
3843;SDS011;1937;51.444;6.484;2023-09-30T03:17:39;20.03;;;7.67;;
3843;SDS011;1937;51.444;6.484;2023-09-30T03:20:07;15.53;;;7.63;;
3843;SDS011;1937;51.444;6.484;2023-09-30T03:22:37;13.63;;;7.20;;
3843;SDS011;1937;51.444;6.484;2023-09-30T03:25:08;23.13;;;9.77;;
3843;SDS011;1937;51.444;6.484;2023-09-30T03:27:36;20.63;;;7.53;;
3843;SDS011;1937;51.444;6.484;2023-09-30T03:30:04;14.53;;;7.20;;
3843;SDS011;1937;51.444;6.484;2023-09-30T03:32:32;15.70;;;9.07;;
3843;SDS011;1937;51.444;6.484;2023-09-30T03:34:59;12.57;;;7.70;;
3843;SDS011;1937;51.444;6.484;2023-09-30T03:37:26;16.97;;;7.60;;
3843;SDS011;1937;51.444;6.484;2023-09-30T03:39:54;17.43;;;8.70;;
3843;SDS011;1937;51.444;6.484;2023-09-30T03:42:21;16.33;;;7.00;;
3843;SDS011;1937;51.444;6.484;2023-09-30T03:44:48;17.53;;;8.50;;
3843;SDS011;1937;51.444;6.484;2023-09-30T03:47:15;24.83;;;10.53;;
3843;SDS011;1937;51.444;6.484;2023-09-30T03:49:41;19.10;;;10.30;;
3843;SDS011;1937;51.444;6.484;2023-09-30T03:52:08;13.77;;;7.70;;
3843;SDS011;1937;51.444;6.484;2023-09-30T03:54:35;14.83;;;7.50;;
3843;SDS011;1937;51.444;6.484;2023-09-30T03:57:03;12.70;;;7.93;;
3843;SDS011;1937;51.444;6.484;2023-09-30T03:59:30;17.17;;;9.63;;
3843;SDS011;1937;51.444;6.484;2023-09-30T04:01:57;20.77;;;8.03;;
3843;SDS011;1937;51.444;6.484;2023-09-30T04:04:23;13.07;;;8.03;;
3843;SDS011;1937;51.444;6.484;2023-09-30T04:06:50;18.47;;;8.67;;
3843;SDS011;1937;51.444;6.484;2023-09-30T04:09:17;19.73;;;9.00;;
3843;SDS011;1937;51.444;6.484;2023-09-30T04:11:44;26.83;;;9.50;;
3843;SDS011;1937;51.444;6.484;2023-09-30T04:14:13;20.97;;;11.00;;
3843;SDS011;1937;51.444;6.484;2023-09-30T04:16:42;22.33;;;9.07;;
3843;SDS011;1937;51.444;6.484;2023-09-30T04:19:09;21.23;;;9.20;;
3843;SDS011;1937;51.444;6.484;2023-09-30T04:21:36;22.60;;;10.50;;
3843;SDS011;1937;51.444;6.484;2023-09-30T04:24:04;19.67;;;11.27;;
3843;SDS011;1937;51.444;6.484;2023-09-30T04:26:31;24.20;;;10.70;;
3843;SDS011;1937;51.444;6.484;2023-09-30T04:28:58;19.70;;;10.83;;
3843;SDS011;1937;51.444;6.484;2023-09-30T04:31:27;18.47;;;9.00;;
3843;SDS011;1937;51.444;6.484;2023-09-30T04:33:54;17.97;;;8.53;;
3843;SDS011;1937;51.444;6.484;2023-09-30T04:36:22;18.93;;;9.90;;
3843;SDS011;1937;51.444;6.484;2023-09-30T04:38:49;18.40;;;9.43;;
3843;SDS011;1937;51.444;6.484;2023-09-30T04:41:16;26.27;;;12.40;;
3843;SDS011;1937;51.444;6.484;2023-09-30T04:43:44;21.47;;;10.33;;
3843;SDS011;1937;51.444;6.484;2023-09-30T04:46:11;19.27;;;9.13;;
3843;SDS011;1937;51.444;6.484;2023-09-30T04:48:40;20.87;;;11.63;;
3843;SDS011;1937;51.444;6.484;2023-09-30T04:51:07;22.03;;;11.20;;
3843;SDS011;1937;51.444;6.484;2023-09-30T04:53:33;19.43;;;11.03;;
3843;SDS011;1937;51.444;6.484;2023-09-30T04:56:00;24.60;;;12.93;;
3843;SDS011;1937;51.444;6.484;2023-09-30T04:58:27;28.73;;;11.50;;
3843;SDS011;1937;51.444;6.484;2023-09-30T05:00:54;24.97;;;12.50;;
3843;SDS011;1937;51.444;6.484;2023-09-30T05:03:21;20.70;;;11.77;;
3843;SDS011;1937;51.444;6.484;2023-09-30T05:05:50;22.77;;;10.90;;
3843;SDS011;1937;51.444;6.484;2023-09-30T05:08:18;26.00;;;10.60;;
3843;SDS011;1937;51.444;6.484;2023-09-30T05:10:45;29.03;;;11.33;;
3843;SDS011;1937;51.444;6.484;2023-09-30T05:13:13;18.40;;;11.10;;
3843;SDS011;1937;51.444;6.484;2023-09-30T05:15:39;24.43;;;12.10;;
3843;SDS011;1937;51.444;6.484;2023-09-30T05:18:07;21.57;;;12.40;;
3843;SDS011;1937;51.444;6.484;2023-09-30T05:20:34;16.20;;;9.70;;
3843;SDS011;1937;51.444;6.484;2023-09-30T05:23:05;17.23;;;10.17;;
3843;SDS011;1937;51.444;6.484;2023-09-30T05:25:33;19.70;;;10.50;;
3843;SDS011;1937;51.444;6.484;2023-09-30T05:28:00;20.53;;;11.83;;
3843;SDS011;1937;51.444;6.484;2023-09-30T05:30:26;24.23;;;10.77;;
3843;SDS011;1937;51.444;6.484;2023-09-30T05:32:53;22.80;;;12.43;;
3843;SDS011;1937;51.444;6.484;2023-09-30T05:35:20;20.77;;;12.20;;
3843;SDS011;1937;51.444;6.484;2023-09-30T05:37:49;19.97;;;11.63;;
3843;SDS011;1937;51.444;6.484;2023-09-30T05:40:19;18.30;;;10.60;;
3843;SDS011;1937;51.444;6.484;2023-09-30T05:42:51;24.00;;;11.47;;
3843;SDS011;1937;51.444;6.484;2023-09-30T05:45:18;19.93;;;11.10;;
3843;SDS011;1937;51.444;6.484;2023-09-30T05:47:45;17.43;;;10.80;;
3843;SDS011;1937;51.444;6.484;2023-09-30T05:50:11;22.33;;;10.83;;
3843;SDS011;1937;51.444;6.484;2023-09-30T05:52:40;21.67;;;10.57;;
3843;SDS011;1937;51.444;6.484;2023-09-30T05:55:08;23.27;;;12.00;;
3843;SDS011;1937;51.444;6.484;2023-09-30T05:57:36;21.23;;;11.73;;
3843;SDS011;1937;51.444;6.484;2023-09-30T06:00:03;18.27;;;10.40;;
3843;SDS011;1937;51.444;6.484;2023-09-30T06:02:36;15.97;;;10.10;;
3843;SDS011;1937;51.444;6.484;2023-09-30T06:05:03;19.13;;;10.20;;
3843;SDS011;1937;51.444;6.484;2023-09-30T06:07:33;22.93;;;11.30;;
3843;SDS011;1937;51.444;6.484;2023-09-30T06:09:59;19.40;;;10.57;;
3843;SDS011;1937;51.444;6.484;2023-09-30T06:12:28;18.07;;;10.77;;
3843;SDS011;1937;51.444;6.484;2023-09-30T06:14:56;20.10;;;12.20;;
3843;SDS011;1937;51.444;6.484;2023-09-30T06:17:23;21.20;;;9.27;;
3843;SDS011;1937;51.444;6.484;2023-09-30T06:19:50;23.23;;;9.73;;
3843;SDS011;1937;51.444;6.484;2023-09-30T06:22:16;15.83;;;9.63;;
3843;SDS011;1937;51.444;6.484;2023-09-30T06:24:43;17.57;;;9.27;;
3843;SDS011;1937;51.444;6.484;2023-09-30T06:27:11;18.60;;;10.90;;
3843;SDS011;1937;51.444;6.484;2023-09-30T06:29:38;21.70;;;10.53;;
3843;SDS011;1937;51.444;6.484;2023-09-30T06:32:09;21.13;;;11.13;;
3843;SDS011;1937;51.444;6.484;2023-09-30T06:34:35;19.90;;;11.10;;
3843;SDS011;1937;51.444;6.484;2023-09-30T06:37:02;20.63;;;10.27;;
3843;SDS011;1937;51.444;6.484;2023-09-30T06:39:29;29.57;;;11.00;;
3843;SDS011;1937;51.444;6.484;2023-09-30T06:41:55;22.87;;;11.13;;
3843;SDS011;1937;51.444;6.484;2023-09-30T06:44:22;23.67;;;11.73;;
3843;SDS011;1937;51.444;6.484;2023-09-30T06:46:50;26.97;;;14.50;;
3843;SDS011;1937;51.444;6.484;2023-09-30T06:49:18;22.77;;;11.47;;
3843;SDS011;1937;51.444;6.484;2023-09-30T06:51:44;24.97;;;12.30;;
3843;SDS011;1937;51.444;6.484;2023-09-30T06:54:11;28.80;;;14.73;;
3843;SDS011;1937;51.444;6.484;2023-09-30T06:56:37;22.30;;;12.63;;
3843;SDS011;1937;51.444;6.484;2023-09-30T06:59:04;28.63;;;14.23;;
3843;SDS011;1937;51.444;6.484;2023-09-30T07:01:31;28.67;;;15.00;;
3843;SDS011;1937;51.444;6.484;2023-09-30T07:03:58;29.87;;;14.60;;
3843;SDS011;1937;51.444;6.484;2023-09-30T07:06:26;27.70;;;14.60;;
3843;SDS011;1937;51.444;6.484;2023-09-30T07:08:52;32.93;;;15.10;;
3843;SDS011;1937;51.444;6.484;2023-09-30T07:11:26;33.27;;;15.93;;
3843;SDS011;1937;51.444;6.484;2023-09-30T07:13:53;28.47;;;14.00;;
3843;SDS011;1937;51.444;6.484;2023-09-30T07:16:19;29.03;;;15.20;;
3843;SDS011;1937;51.444;6.484;2023-09-30T07:18:46;25.87;;;13.47;;
3843;SDS011;1937;51.444;6.484;2023-09-30T07:21:13;30.83;;;14.53;;
3843;SDS011;1937;51.444;6.484;2023-09-30T07:23:41;29.70;;;15.43;;
3843;SDS011;1937;51.444;6.484;2023-09-30T07:26:08;28.70;;;14.67;;
3843;SDS011;1937;51.444;6.484;2023-09-30T07:28:34;24.93;;;13.27;;
3843;SDS011;1937;51.444;6.484;2023-09-30T07:31:01;31.57;;;13.40;;
3843;SDS011;1937;51.444;6.484;2023-09-30T07:33:28;30.10;;;13.47;;
3843;SDS011;1937;51.444;6.484;2023-09-30T07:35:55;26.37;;;13.23;;
3843;SDS011;1937;51.444;6.484;2023-09-30T07:38:22;29.50;;;14.67;;
3843;SDS011;1937;51.444;6.484;2023-09-30T07:40:49;25.53;;;13.13;;
3843;SDS011;1937;51.444;6.484;2023-09-30T07:43:16;28.27;;;13.03;;
3843;SDS011;1937;51.444;6.484;2023-09-30T07:45:45;23.87;;;14.03;;
3843;SDS011;1937;51.444;6.484;2023-09-30T07:48:12;28.67;;;14.03;;
3843;SDS011;1937;51.444;6.484;2023-09-30T07:50:39;25.97;;;13.70;;
3843;SDS011;1937;51.444;6.484;2023-09-30T07:53:07;23.97;;;13.10;;
3843;SDS011;1937;51.444;6.484;2023-09-30T07:55:34;24.40;;;13.30;;
3843;SDS011;1937;51.444;6.484;2023-09-30T07:58:02;23.07;;;14.30;;
3843;SDS011;1937;51.444;6.484;2023-09-30T08:00:29;25.53;;;12.63;;
3843;SDS011;1937;51.444;6.484;2023-09-30T08:02:58;20.47;;;10.93;;
3843;SDS011;1937;51.444;6.484;2023-09-30T08:05:26;20.93;;;11.23;;
3843;SDS011;1937;51.444;6.484;2023-09-30T08:07:52;22.13;;;10.40;;
3843;SDS011;1937;51.444;6.484;2023-09-30T08:10:19;17.90;;;12.20;;
3843;SDS011;1937;51.444;6.484;2023-09-30T08:12:46;16.10;;;10.03;;
3843;SDS011;1937;51.444;6.484;2023-09-30T08:15:15;22.23;;;11.00;;
3843;SDS011;1937;51.444;6.484;2023-09-30T08:17:42;16.67;;;9.20;;
3843;SDS011;1937;51.444;6.484;2023-09-30T08:20:08;18.43;;;11.00;;
3843;SDS011;1937;51.444;6.484;2023-09-30T08:22:36;21.50;;;9.80;;
3843;SDS011;1937;51.444;6.484;2023-09-30T08:25:03;18.13;;;9.77;;
3843;SDS011;1937;51.444;6.484;2023-09-30T08:27:31;15.43;;;9.47;;
3843;SDS011;1937;51.444;6.484;2023-09-30T08:29:58;13.60;;;9.40;;
3843;SDS011;1937;51.444;6.484;2023-09-30T08:32:26;17.40;;;9.10;;
3843;SDS011;1937;51.444;6.484;2023-09-30T08:34:52;14.17;;;8.87;;
3843;SDS011;1937;51.444;6.484;2023-09-30T08:37:19;16.13;;;9.17;;
3843;SDS011;1937;51.444;6.484;2023-09-30T08:39:46;12.30;;;9.13;;
3843;SDS011;1937;51.444;6.484;2023-09-30T08:42:12;15.73;;;8.97;;
3843;SDS011;1937;51.444;6.484;2023-09-30T08:44:39;16.20;;;8.70;;
3843;SDS011;1937;51.444;6.484;2023-09-30T08:47:06;17.33;;;9.03;;
3843;SDS011;1937;51.444;6.484;2023-09-30T08:49:35;13.20;;;8.90;;
3843;SDS011;1937;51.444;6.484;2023-09-30T08:52:04;16.03;;;9.20;;
3843;SDS011;1937;51.444;6.484;2023-09-30T08:54:32;15.23;;;8.27;;
3843;SDS011;1937;51.444;6.484;2023-09-30T08:56:58;16.20;;;8.00;;
3843;SDS011;1937;51.444;6.484;2023-09-30T08:59:28;13.23;;;8.30;;
3843;SDS011;1937;51.444;6.484;2023-09-30T09:01:55;22.93;;;7.63;;
3843;SDS011;1937;51.444;6.484;2023-09-30T09:04:23;12.70;;;6.73;;
3843;SDS011;1937;51.444;6.484;2023-09-30T09:06:51;19.37;;;9.47;;
3843;SDS011;1937;51.444;6.484;2023-09-30T09:09:19;16.47;;;8.67;;
3843;SDS011;1937;51.444;6.484;2023-09-30T09:11:47;16.60;;;8.10;;
3843;SDS011;1937;51.444;6.484;2023-09-30T09:14:14;16.53;;;7.00;;
3843;SDS011;1937;51.444;6.484;2023-09-30T09:16:53;13.67;;;7.97;;
3843;SDS011;1937;51.444;6.484;2023-09-30T09:19:21;13.87;;;6.57;;
3843;SDS011;1937;51.444;6.484;2023-09-30T09:21:56;14.17;;;8.00;;
3843;SDS011;1937;51.444;6.484;2023-09-30T09:24:26;12.00;;;6.53;;
3843;SDS011;1937;51.444;6.484;2023-09-30T09:26:58;15.97;;;8.87;;
3843;SDS011;1937;51.444;6.484;2023-09-30T09:29:30;12.37;;;6.63;;
3843;SDS011;1937;51.444;6.484;2023-09-30T09:32:06;12.50;;;5.90;;
3843;SDS011;1937;51.444;6.484;2023-09-30T09:34:34;10.53;;;5.93;;
3843;SDS011;1937;51.444;6.484;2023-09-30T09:37:02;13.00;;;6.30;;
3843;SDS011;1937;51.444;6.484;2023-09-30T09:39:39;11.57;;;6.23;;
3843;SDS011;1937;51.444;6.484;2023-09-30T09:42:07;11.90;;;7.07;;
3843;SDS011;1937;51.444;6.484;2023-09-30T09:44:35;9.80;;;5.23;;
3843;SDS011;1937;51.444;6.484;2023-09-30T09:47:03;11.47;;;5.13;;
3843;SDS011;1937;51.444;6.484;2023-09-30T09:49:31;12.10;;;5.43;;
3843;SDS011;1937;51.444;6.484;2023-09-30T09:51:58;12.30;;;5.90;;
3843;SDS011;1937;51.444;6.484;2023-09-30T09:54:28;16.90;;;7.80;;
3843;SDS011;1937;51.444;6.484;2023-09-30T09:56:55;16.73;;;7.17;;
3843;SDS011;1937;51.444;6.484;2023-09-30T09:59:25;11.50;;;7.77;;
3843;SDS011;1937;51.444;6.484;2023-09-30T10:01:51;12.07;;;7.57;;
3843;SDS011;1937;51.444;6.484;2023-09-30T10:04:18;14.50;;;8.00;;
3843;SDS011;1937;51.444;6.484;2023-09-30T10:06:46;17.70;;;9.20;;
3843;SDS011;1937;51.444;6.484;2023-09-30T10:09:19;14.37;;;8.80;;
3843;SDS011;1937;51.444;6.484;2023-09-30T10:11:46;21.87;;;9.97;;
3843;SDS011;1937;51.444;6.484;2023-09-30T10:14:29;16.23;;;8.93;;
3843;SDS011;1937;51.444;6.484;2023-09-30T10:16:57;12.73;;;8.67;;
3843;SDS011;1937;51.444;6.484;2023-09-30T10:19:24;13.03;;;8.47;;
3843;SDS011;1937;51.444;6.484;2023-09-30T10:24:52;12.63;;;8.27;;
3843;SDS011;1937;51.444;6.484;2023-09-30T10:27:32;9.83;;;7.47;;
3843;SDS011;1937;51.444;6.484;2023-09-30T10:30:05;19.53;;;9.47;;
3843;SDS011;1937;51.444;6.484;2023-09-30T10:35:42;11.07;;;7.47;;
3843;SDS011;1937;51.444;6.484;2023-09-30T10:38:36;12.10;;;7.73;;
3843;SDS011;1937;51.444;6.484;2023-09-30T10:41:07;9.93;;;5.97;;
3843;SDS011;1937;51.444;6.484;2023-09-30T10:43:34;12.03;;;6.70;;
3843;SDS011;1937;51.444;6.484;2023-09-30T10:46:03;11.17;;;7.70;;
3843;SDS011;1937;51.444;6.484;2023-09-30T10:48:32;11.40;;;7.83;;
3843;SDS011;1937;51.444;6.484;2023-09-30T10:51:15;15.70;;;8.00;;
3843;SDS011;1937;51.444;6.484;2023-09-30T10:53:49;12.70;;;7.63;;
3843;SDS011;1937;51.444;6.484;2023-09-30T10:56:19;9.50;;;5.63;;
3843;SDS011;1937;51.444;6.484;2023-09-30T10:58:46;9.07;;;5.73;;
3843;SDS011;1937;51.444;6.484;2023-09-30T11:01:14;9.50;;;6.57;;
3843;SDS011;1937;51.444;6.484;2023-09-30T11:03:41;7.00;;;5.37;;
3843;SDS011;1937;51.444;6.484;2023-09-30T11:06:10;12.63;;;6.23;;
3843;SDS011;1937;51.444;6.484;2023-09-30T11:08:40;11.73;;;6.03;;
3843;SDS011;1937;51.444;6.484;2023-09-30T11:11:11;10.40;;;5.60;;
3843;SDS011;1937;51.444;6.484;2023-09-30T11:13:40;9.60;;;6.00;;
3843;SDS011;1937;51.444;6.484;2023-09-30T11:16:07;9.50;;;6.60;;
3843;SDS011;1937;51.444;6.484;2023-09-30T11:18:34;13.77;;;7.90;;
3843;SDS011;1937;51.444;6.484;2023-09-30T11:21:03;17.07;;;8.10;;
3843;SDS011;1937;51.444;6.484;2023-09-30T11:23:40;14.47;;;6.73;;
3843;SDS011;1937;51.444;6.484;2023-09-30T11:26:07;14.80;;;7.90;;
3843;SDS011;1937;51.444;6.484;2023-09-30T11:28:35;12.50;;;6.77;;
3843;SDS011;1937;51.444;6.484;2023-09-30T11:33:34;9.40;;;7.00;;
3843;SDS011;1937;51.444;6.484;2023-09-30T11:36:14;11.27;;;6.43;;
3843;SDS011;1937;51.444;6.484;2023-09-30T11:38:44;9.70;;;6.43;;
3843;SDS011;1937;51.444;6.484;2023-09-30T11:41:11;9.40;;;6.47;;
3843;SDS011;1937;51.444;6.484;2023-09-30T11:43:39;9.00;;;6.43;;
3843;SDS011;1937;51.444;6.484;2023-09-30T11:46:24;10.57;;;6.60;;
3843;SDS011;1937;51.444;6.484;2023-09-30T11:48:57;14.00;;;6.57;;
3843;SDS011;1937;51.444;6.484;2023-09-30T11:51:25;11.50;;;6.30;;
3843;SDS011;1937;51.444;6.484;2023-09-30T11:53:51;10.37;;;4.87;;
3843;SDS011;1937;51.444;6.484;2023-09-30T11:56:19;8.13;;;4.97;;
3843;SDS011;1937;51.444;6.484;2023-09-30T11:58:47;16.13;;;4.17;;
3843;SDS011;1937;51.444;6.484;2023-09-30T12:01:14;6.13;;;4.03;;
3843;SDS011;1937;51.444;6.484;2023-09-30T12:03:41;10.53;;;4.13;;
3843;SDS011;1937;51.444;6.484;2023-09-30T12:06:09;7.30;;;4.23;;
3843;SDS011;1937;51.444;6.484;2023-09-30T12:08:38;13.20;;;5.47;;
3843;SDS011;1937;51.444;6.484;2023-09-30T12:11:05;7.83;;;4.70;;
3843;SDS011;1937;51.444;6.484;2023-09-30T12:13:32;8.00;;;5.03;;
3843;SDS011;1937;51.444;6.484;2023-09-30T12:15:58;7.13;;;4.20;;
3843;SDS011;1937;51.444;6.484;2023-09-30T12:18:25;7.57;;;4.90;;
3843;SDS011;1937;51.444;6.484;2023-09-30T12:20:51;7.63;;;5.07;;
3843;SDS011;1937;51.444;6.484;2023-09-30T12:23:19;7.00;;;4.13;;
3843;SDS011;1937;51.444;6.484;2023-09-30T12:25:46;9.50;;;4.40;;
3843;SDS011;1937;51.444;6.484;2023-09-30T12:28:13;5.43;;;3.30;;
3843;SDS011;1937;51.444;6.484;2023-09-30T12:30:40;7.37;;;3.47;;
3843;SDS011;1937;51.444;6.484;2023-09-30T12:33:08;8.17;;;4.20;;
3843;SDS011;1937;51.444;6.484;2023-09-30T12:35:35;8.80;;;4.60;;
3843;SDS011;1937;51.444;6.484;2023-09-30T12:38:03;11.77;;;4.30;;
3843;SDS011;1937;51.444;6.484;2023-09-30T12:40:31;8.97;;;5.40;;
3843;SDS011;1937;51.444;6.484;2023-09-30T12:42:58;7.80;;;4.73;;
3843;SDS011;1937;51.444;6.484;2023-09-30T12:45:26;6.73;;;4.07;;
3843;SDS011;1937;51.444;6.484;2023-09-30T12:47:53;7.50;;;4.87;;
3843;SDS011;1937;51.444;6.484;2023-09-30T12:50:21;6.77;;;3.93;;
3843;SDS011;1937;51.444;6.484;2023-09-30T12:52:48;10.17;;;3.47;;
3843;SDS011;1937;51.444;6.484;2023-09-30T12:55:15;8.67;;;3.80;;
3843;SDS011;1937;51.444;6.484;2023-09-30T12:57:43;6.37;;;3.90;;
3843;SDS011;1937;51.444;6.484;2023-09-30T13:00:10;7.00;;;4.70;;
3843;SDS011;1937;51.444;6.484;2023-09-30T13:02:37;6.23;;;4.10;;
3843;SDS011;1937;51.444;6.484;2023-09-30T13:05:04;5.90;;;3.80;;
3843;SDS011;1937;51.444;6.484;2023-09-30T13:07:32;7.87;;;4.03;;
3843;SDS011;1937;51.444;6.484;2023-09-30T13:09:59;5.73;;;4.03;;
3843;SDS011;1937;51.444;6.484;2023-09-30T13:12:26;7.10;;;3.87;;
3843;SDS011;1937;51.444;6.484;2023-09-30T13:14:54;6.63;;;4.00;;
3843;SDS011;1937;51.444;6.484;2023-09-30T13:17:21;10.63;;;4.37;;
3843;SDS011;1937;51.444;6.484;2023-09-30T13:19:48;6.97;;;3.40;;
3843;SDS011;1937;51.444;6.484;2023-09-30T13:22:16;5.67;;;3.30;;
3843;SDS011;1937;51.444;6.484;2023-09-30T13:24:42;6.03;;;4.10;;
3843;SDS011;1937;51.444;6.484;2023-09-30T13:27:09;10.50;;;3.70;;
3843;SDS011;1937;51.444;6.484;2023-09-30T13:29:36;8.10;;;3.80;;
3843;SDS011;1937;51.444;6.484;2023-09-30T13:32:04;5.80;;;3.10;;
3843;SDS011;1937;51.444;6.484;2023-09-30T13:34:31;5.30;;;3.10;;
3843;SDS011;1937;51.444;6.484;2023-09-30T13:36:57;8.10;;;4.03;;
3843;SDS011;1937;51.444;6.484;2023-09-30T13:39:24;9.00;;;5.13;;
3843;SDS011;1937;51.444;6.484;2023-09-30T13:41:50;6.77;;;4.40;;
3843;SDS011;1937;51.444;6.484;2023-09-30T13:44:17;15.97;;;4.20;;
3843;SDS011;1937;51.444;6.484;2023-09-30T13:46:44;5.73;;;4.03;;
3843;SDS011;1937;51.444;6.484;2023-09-30T13:49:12;6.67;;;4.07;;
3843;SDS011;1937;51.444;6.484;2023-09-30T13:54:27;8.40;;;4.53;;
3843;SDS011;1937;51.444;6.484;2023-09-30T13:56:54;6.97;;;3.60;;
3843;SDS011;1937;51.444;6.484;2023-09-30T13:59:21;7.17;;;3.23;;
3843;SDS011;1937;51.444;6.484;2023-09-30T14:01:48;8.87;;;3.77;;
3843;SDS011;1937;51.444;6.484;2023-09-30T14:04:16;7.03;;;3.63;;
3843;SDS011;1937;51.444;6.484;2023-09-30T14:06:43;7.73;;;3.73;;
3843;SDS011;1937;51.444;6.484;2023-09-30T14:09:09;5.57;;;3.70;;
3843;SDS011;1937;51.444;6.484;2023-09-30T14:11:40;7.73;;;4.23;;
3843;SDS011;1937;51.444;6.484;2023-09-30T14:14:06;8.10;;;4.20;;
3843;SDS011;1937;51.444;6.484;2023-09-30T14:16:35;6.40;;;3.80;;
3843;SDS011;1937;51.444;6.484;2023-09-30T14:19:02;5.83;;;4.80;;
3843;SDS011;1937;51.444;6.484;2023-09-30T14:21:30;5.60;;;3.83;;
3843;SDS011;1937;51.444;6.484;2023-09-30T14:23:57;6.40;;;3.37;;
3843;SDS011;1937;51.444;6.484;2023-09-30T14:26:26;5.10;;;3.40;;
3843;SDS011;1937;51.444;6.484;2023-09-30T14:28:53;9.07;;;4.10;;
3843;SDS011;1937;51.444;6.484;2023-09-30T14:31:20;5.77;;;3.70;;
3843;SDS011;1937;51.444;6.484;2023-09-30T14:33:47;6.80;;;3.70;;
3843;SDS011;1937;51.444;6.484;2023-09-30T14:36:13;8.20;;;4.00;;
3843;SDS011;1937;51.444;6.484;2023-09-30T14:38:41;7.47;;;4.10;;
3843;SDS011;1937;51.444;6.484;2023-09-30T14:41:08;16.83;;;3.97;;
3843;SDS011;1937;51.444;6.484;2023-09-30T14:43:35;8.07;;;4.30;;
3843;SDS011;1937;51.444;6.484;2023-09-30T14:46:02;6.73;;;4.10;;
3843;SDS011;1937;51.444;6.484;2023-09-30T14:48:28;9.23;;;4.10;;
3843;SDS011;1937;51.444;6.484;2023-09-30T14:50:55;8.77;;;4.10;;
3843;SDS011;1937;51.444;6.484;2023-09-30T14:53:22;11.17;;;4.80;;
3843;SDS011;1937;51.444;6.484;2023-09-30T14:55:51;7.50;;;4.13;;
3843;SDS011;1937;51.444;6.484;2023-09-30T14:58:17;9.10;;;4.20;;
3843;SDS011;1937;51.444;6.484;2023-09-30T15:00:44;7.03;;;4.10;;
3843;SDS011;1937;51.444;6.484;2023-09-30T15:03:12;6.30;;;4.40;;
3843;SDS011;1937;51.444;6.484;2023-09-30T15:05:38;8.10;;;3.73;;
3843;SDS011;1937;51.444;6.484;2023-09-30T15:08:05;7.63;;;4.03;;
3843;SDS011;1937;51.444;6.484;2023-09-30T15:10:33;11.80;;;4.40;;
3843;SDS011;1937;51.444;6.484;2023-09-30T15:13:02;7.20;;;4.47;;
3843;SDS011;1937;51.444;6.484;2023-09-30T15:15:30;6.50;;;3.23;;
3843;SDS011;1937;51.444;6.484;2023-09-30T15:17:56;6.40;;;3.57;;